Finn Rock, Oregon
Current Conditions -  °F | °C
As of 4:54 PM on Sunday 23 Nov 2014 (Local Time) from KEUG Reporting Station
Light Rain Light Rain  
Wind Chill: 52°   Ceiling: 4600
Heat Index: 52°   Visibility: 10mi
Dew Point: 45°   Wind: 12mph
Humidity: 77%   Direction: 190°S
Pressure: 30.34"   Gusts: NA
Location:  44.1366°N, 122.448°W
Report Text: KEUG 240054Z 19010KT 10SM -RA SCT035 BKN046 OVC070 11/07 A3034 RMK AO2 RAB51 SLP275 TCU DSNT N-NE P0000 T01110072
Loading
Personal Weather Stations






























Interactive Weather Map New forecast layout! Learn more

10-Day Weather Forecast

Advertisements
Track Severe Weather on mobile